createdAt,value
2018-06-30T00:00:53.244Z,79.60
2018-06-30T00:03:25.211Z,79.70
2018-06-30T00:05:54.212Z,80.00
2018-06-30T00:08:23.083Z,80.10
2018-06-30T00:10:52.012Z,80.50
2018-06-30T00:13:20.899Z,81.10
2018-06-30T00:15:49.764Z,81.70
2018-06-30T00:18:18.912Z,81.60
2018-06-30T00:20:47.813Z,81.80
2018-06-30T00:23:16.697Z,81.90
2018-06-30T00:25:45.661Z,82.40
2018-06-30T00:28:20.904Z,82.50
2018-06-30T00:30:49.785Z,82.40
2018-06-30T00:33:18.652Z,82.50
2018-06-30T00:35:47.560Z,82.50
2018-06-30T00:38:17.558Z,82.70
2018-06-30T00:40:46.452Z,82.80
2018-06-30T00:43:15.370Z,82.90
2018-06-30T00:45:44.257Z,83.10
2018-06-30T00:48:13.211Z,83.40
2018-06-30T00:50:42.080Z,83.60
2018-06-30T00:53:10.957Z,83.70
2018-06-30T00:55:39.840Z,83.90
2018-06-30T00:58:09.460Z,84.10
2018-06-30T01:00:39.468Z,84.20
2018-06-30T01:03:08.452Z,84.50
2018-06-30T01:05:37.372Z,84.90
2018-06-30T01:08:06.905Z,85.10
2018-06-30T01:13:04.299Z,85.30
2018-06-30T01:15:33.180Z,85.60
2018-06-30T01:18:02.016Z,85.60
2018-06-30T01:20:30.868Z,85.80
2018-06-30T01:22:59.769Z,86.50
2018-06-30T01:25:28.604Z,86.80
2018-06-30T01:27:57.504Z,86.80
2018-06-30T01:32:54.855Z,87.20
2018-06-30T01:35:23.793Z,87.10
2018-06-30T01:37:52.625Z,86.90
2018-06-30T01:40:21.496Z,87.00
2018-06-30T01:42:50.372Z,87.10
2018-06-30T01:45:19.260Z,87.00
2018-06-30T01:47:48.164Z,87.00
2018-06-30T01:50:17.088Z,87.30
2018-06-30T01:52:45.972Z,87.20
2018-06-30T01:55:14.937Z,87.50
2018-06-30T01:57:43.848Z,87.50
2018-06-30T02:00:12.704Z,87.30
2018-06-30T02:02:41.564Z,87.50
2018-06-30T02:07:38.864Z,87.70
2018-06-30T02:10:07.756Z,87.90
2018-06-30T02:12:36.661Z,88.00
2018-06-30T02:15:06.215Z,88.40
2018-06-30T02:20:03.716Z,88.50
2018-06-30T02:22:32.791Z,88.20
2018-06-30T02:27:30.137Z,88.50
2018-06-30T02:29:59.024Z,88.50
2018-06-30T02:32:27.887Z,88.50
2018-06-30T02:34:56.949Z,88.80
2018-06-30T02:37:25.868Z,88.70
2018-06-30T02:39:54.745Z,88.70
2018-06-30T02:42:23.667Z,88.60
2018-06-30T02:44:52.468Z,88.80
2018-06-30T02:47:21.421Z,88.80
2018-06-30T02:49:50.265Z,89.00
2018-06-30T02:52:19.211Z,88.90
2018-06-30T02:54:48.130Z,88.90
2018-06-30T02:57:17.050Z,88.80
2018-06-30T02:59:45.926Z,88.80
2018-06-30T03:02:14.868Z,88.90
2018-06-30T03:04:43.684Z,89.20
2018-06-30T03:07:12.548Z,89.40
2018-06-30T03:09:41.552Z,89.50
2018-06-30T03:12:10.516Z,89.60
2018-06-30T03:14:39.418Z,89.60
2018-06-30T03:17:08.331Z,90.30
2018-06-30T03:19:37.196Z,89.60
2018-06-30T03:22:06.089Z,89.40
2018-06-30T03:24:34.953Z,89.30
2018-06-30T03:29:32.372Z,89.20
2018-06-30T03:32:01.296Z,89.20
2018-06-30T03:34:30.078Z,89.20
2018-06-30T03:36:59.047Z,89.20
2018-06-30T03:39:27.850Z,89.10
2018-06-30T03:41:56.826Z,89.10
2018-06-30T03:44:25.756Z,89.10
2018-06-30T03:46:54.725Z,89.20
2018-06-30T03:49:23.648Z,89.10
2018-06-30T03:54:21.017Z,89.20
2018-06-30T03:56:49.908Z,89.30
2018-06-30T04:01:47.495Z,89.30
2018-06-30T04:04:16.384Z,89.10
2018-06-30T04:06:45.305Z,89.10
2018-06-30T04:09:14.320Z,89.10
2018-06-30T04:11:43.239Z,89.10
2018-06-30T04:14:12.199Z,89.10
2018-06-30T04:16:41.137Z,88.90
2018-06-30T04:21:47.192Z,88.70
2018-06-30T04:24:16.158Z,88.50
2018-06-30T04:26:45.105Z,88.20
2018-06-30T04:29:14.592Z,88.00
2018-06-30T04:31:43.483Z,87.70
2018-06-30T04:34:12.356Z,87.60
2018-06-30T04:36:41.308Z,87.60
2018-06-30T04:39:10.718Z,87.10
2018-06-30T04:41:39.714Z,86.80
2018-06-30T04:44:08.674Z,86.40
2018-06-30T04:46:37.588Z,85.70
2018-06-30T04:49:06.497Z,84.70
2018-06-30T04:51:35.410Z,83.70
2018-06-30T04:54:04.422Z,83.00
2018-06-30T04:56:33.272Z,83.30
2018-06-30T04:59:02.204Z,83.30
2018-06-30T05:01:31.081Z,83.20
2018-06-30T05:04:01.036Z,82.90
2018-06-30T05:06:29.881Z,83.20
2018-06-30T05:08:58.824Z,83.20
2018-06-30T05:11:27.717Z,82.90
2018-06-30T05:13:56.653Z,82.90
2018-06-30T05:16:25.520Z,82.60
2018-06-30T05:18:55.266Z,81.70
2018-06-30T05:21:24.152Z,81.30
2018-06-30T05:23:53.024Z,81.10
2018-06-30T05:26:21.890Z,81.40
2018-06-30T05:28:50.831Z,81.80
2018-06-30T05:31:19.716Z,81.40
2018-06-30T05:33:48.596Z,81.00
2018-06-30T05:36:17.519Z,81.00
2018-06-30T05:41:14.919Z,78.60
2018-06-30T05:43:43.812Z,78.30
2018-06-30T05:46:12.705Z,77.50
2018-06-30T05:48:41.580Z,77.40
2018-06-30T05:51:10.485Z,76.40
2018-06-30T05:53:39.396Z,75.20
2018-06-30T05:56:08.371Z,75.30
2018-06-30T05:58:37.317Z,74.90
2018-06-30T06:01:06.634Z,73.60
2018-06-30T06:06:04.095Z,73.10
2018-06-30T06:11:01.681Z,74.40
2018-06-30T06:15:58.984Z,72.60
2018-06-30T06:18:27.912Z,70.90
2018-06-30T06:20:56.821Z,72.30
2018-06-30T06:23:25.703Z,70.80
2018-06-30T06:25:54.719Z,70.70
2018-06-30T06:28:23.561Z,70.50
2018-06-30T06:30:52.633Z,69.10
2018-06-30T06:33:21.480Z,68.30
2018-06-30T06:35:50.408Z,67.30
2018-06-30T06:38:19.301Z,65.50
2018-06-30T06:40:48.316Z,66.60
2018-06-30T06:43:17.316Z,65.30
2018-06-30T06:45:46.340Z,66.70
2018-06-30T06:48:15.189Z,66.60
2018-06-30T06:50:44.139Z,66.20
2018-06-30T06:53:13.055Z,66.20
2018-06-30T06:55:41.966Z,66.50
2018-06-30T06:58:10.836Z,65.20
2018-06-30T07:00:39.798Z,64.90
2018-06-30T07:03:08.717Z,63.40
2018-06-30T07:08:06.116Z,63.80
2018-06-30T07:10:35.108Z,60.50
2018-06-30T07:13:04.016Z,57.20
2018-06-30T07:15:32.948Z,55.70
2018-06-30T07:18:01.829Z,54.80
2018-06-30T07:22:59.217Z,53.10
2018-06-30T07:25:28.133Z,53.30
2018-06-30T07:27:57.069Z,53.20
2018-06-30T07:30:25.972Z,52.20
2018-06-30T07:35:23.480Z,51.90
2018-06-30T07:37:52.512Z,49.60
2018-06-30T07:40:21.564Z,50.90
2018-06-30T07:42:50.488Z,51.10
2018-06-30T07:45:19.340Z,50.80
2018-06-30T07:47:48.260Z,50.80
2018-06-30T07:50:17.207Z,51.10
2018-06-30T07:52:46.147Z,50.40
2018-06-30T07:55:15.048Z,50.90
2018-06-30T07:57:43.922Z,51.50
2018-06-30T08:00:12.846Z,50.80
2018-06-30T08:02:41.808Z,51.90
2018-06-30T08:05:10.760Z,51.00
2018-06-30T08:07:39.624Z,49.70
2018-06-30T08:10:08.604Z,50.00
2018-06-30T08:12:37.586Z,50.10
2018-06-30T08:15:06.661Z,49.80
2018-06-30T08:17:35.600Z,49.60
2018-06-30T08:20:04.604Z,50.30
2018-06-30T08:22:33.588Z,52.40
2018-06-30T08:27:31.077Z,55.30
2018-06-30T08:29:59.955Z,54.70
2018-06-30T08:32:28.985Z,53.10
2018-06-30T08:34:57.856Z,52.80
2018-06-30T08:37:26.824Z,50.00
2018-06-30T08:39:55.709Z,49.50
2018-06-30T08:42:24.663Z,49.80
2018-06-30T08:44:53.591Z,47.10
2018-06-30T08:47:22.475Z,47.40
2018-06-30T08:49:51.384Z,47.00
2018-06-30T08:52:20.357Z,45.30
2018-06-30T08:54:49.286Z,44.80
2018-06-30T08:57:18.257Z,45.20
2018-06-30T08:59:47.281Z,45.70
2018-06-30T09:02:16.215Z,44.60
2018-06-30T09:04:45.194Z,41.60
2018-06-30T09:07:14.046Z,42.20
2018-06-30T09:09:42.985Z,42.30
2018-06-30T09:12:11.918Z,42.60
2018-06-30T09:14:40.864Z,41.80
2018-06-30T09:17:09.752Z,40.20
2018-06-30T09:19:38.889Z,40.50
2018-06-30T09:22:07.816Z,39.70
2018-06-30T09:24:36.837Z,39.70
2018-06-30T09:27:05.873Z,40.30
2018-06-30T09:32:03.340Z,37.90
2018-06-30T09:34:32.141Z,38.30
2018-06-30T09:39:29.597Z,37.70
2018-06-30T09:41:58.553Z,39.00
2018-06-30T09:44:27.529Z,38.00
2018-06-30T09:46:56.496Z,35.90
2018-06-30T09:49:25.437Z,37.40
2018-06-30T09:51:54.439Z,39.00
2018-06-30T09:54:23.456Z,39.50
2018-06-30T09:56:52.453Z,37.70
2018-06-30T09:59:21.410Z,37.50
2018-06-30T10:01:50.348Z,37.60
2018-06-30T10:06:47.742Z,37.30
2018-06-30T10:09:16.685Z,37.10
2018-06-30T10:11:45.592Z,34.30
2018-06-30T10:14:14.554Z,34.20
2018-06-30T10:16:43.405Z,34.40
2018-06-30T10:19:12.523Z,36.80
2018-06-30T10:21:41.316Z,38.10
2018-06-30T10:24:10.265Z,37.80
2018-06-30T10:26:39.405Z,36.50
2018-06-30T10:29:08.368Z,37.60
2018-06-30T10:31:37.272Z,36.40
2018-06-30T10:34:06.469Z,36.10
2018-06-30T10:36:35.360Z,36.90
2018-06-30T10:39:06.825Z,36.40
2018-06-30T10:41:35.728Z,35.30
2018-06-30T10:44:05.192Z,35.40
2018-06-30T10:46:34.154Z,36.50
2018-06-30T10:49:03.105Z,34.70
2018-06-30T10:51:32.273Z,34.30
2018-06-30T10:54:01.193Z,33.10
2018-06-30T10:56:30.061Z,34.20
2018-06-30T10:58:59.021Z,32.90
2018-06-30T11:03:56.498Z,33.20
2018-06-30T11:06:25.311Z,35.20
2018-06-30T11:08:54.384Z,35.20
2018-06-30T11:13:51.809Z,34.00
2018-06-30T11:16:20.823Z,34.50
2018-06-30T11:18:49.729Z,34.50
2018-06-30T11:21:19.026Z,33.90
2018-06-30T11:23:47.960Z,32.40
2018-06-30T11:26:16.871Z,31.50
2018-06-30T11:28:45.920Z,32.40
2018-06-30T11:31:14.897Z,31.80
2018-06-30T11:33:43.864Z,32.40
2018-06-30T11:36:12.785Z,31.30
2018-06-30T11:41:10.167Z,31.40
2018-06-30T11:43:39.168Z,31.80
2018-06-30T11:46:08.157Z,31.20
2018-06-30T11:48:37.024Z,32.80
2018-06-30T11:51:06.190Z,31.70
2018-06-30T11:53:35.225Z,30.40
2018-06-30T11:56:04.275Z,30.60
2018-06-30T11:58:33.444Z,29.50
2018-06-30T12:01:02.365Z,29.50
2018-06-30T12:03:31.387Z,29.90
2018-06-30T12:06:00.354Z,30.70
2018-06-30T12:08:29.232Z,31.00
2018-06-30T12:10:58.161Z,30.90
2018-06-30T12:13:27.091Z,31.90
2018-06-30T12:15:56.036Z,31.80
2018-06-30T12:18:24.968Z,29.80
2018-06-30T12:20:53.907Z,30.00
2018-06-30T12:23:22.749Z,28.90
2018-06-30T12:25:51.712Z,29.30
2018-06-30T12:28:20.644Z,29.20
2018-06-30T12:30:49.596Z,29.40
2018-06-30T12:33:18.808Z,28.40
2018-06-30T12:35:47.740Z,28.50
2018-06-30T12:38:16.681Z,28.70
2018-06-30T12:40:45.612Z,28.50
2018-06-30T12:43:14.535Z,27.30
2018-06-30T12:45:43.477Z,27.90
2018-06-30T12:50:40.909Z,28.90
2018-06-30T12:53:09.828Z,30.90
2018-06-30T12:55:39.333Z,30.70
2018-06-30T12:58:08.529Z,31.30
2018-06-30T13:03:06.032Z,30.60
2018-06-30T13:05:34.992Z,29.70
2018-06-30T13:08:03.943Z,29.20
2018-06-30T13:10:32.832Z,30.00
2018-06-30T13:13:01.726Z,30.10
2018-06-30T13:15:30.706Z,30.10
2018-06-30T13:17:59.564Z,29.60
2018-06-30T13:20:28.596Z,28.60
2018-06-30T13:22:57.437Z,29.10
2018-06-30T13:25:26.388Z,29.00
2018-06-30T13:27:55.296Z,29.10
2018-06-30T13:30:24.204Z,29.80
2018-06-30T13:32:53.097Z,30.40
2018-06-30T13:35:22.112Z,31.30
2018-06-30T13:37:51.080Z,31.60
2018-06-30T13:40:20.180Z,31.80
2018-06-30T13:42:49.121Z,32.60
2018-06-30T13:45:18.155Z,34.20
2018-06-30T13:47:47.192Z,33.90
2018-06-30T13:50:16.216Z,34.00
2018-06-30T13:52:45.159Z,40.40
2018-06-30T13:55:14.083Z,42.30
2018-06-30T13:57:43.001Z,43.50
2018-06-30T14:00:12.013Z,45.00
2018-06-30T14:02:40.920Z,46.50
2018-06-30T14:07:38.337Z,48.80
2018-06-30T14:10:08.110Z,49.10
2018-06-30T14:15:07.528Z,50.20
2018-06-30T14:17:36.441Z,50.40
2018-06-30T14:20:06.528Z,50.10
2018-06-30T14:22:35.531Z,48.90
2018-06-30T14:25:04.411Z,48.00
2018-06-30T14:27:33.448Z,48.50
2018-06-30T14:30:02.321Z,49.10
2018-06-30T14:32:31.389Z,48.80
2018-06-30T14:35:00.324Z,49.50
2018-06-30T14:37:29.233Z,50.10
2018-06-30T14:39:58.136Z,51.00
2018-06-30T14:42:27.192Z,51.00
2018-06-30T14:44:56.152Z,50.50
2018-06-30T14:47:25.084Z,50.20
2018-06-30T14:49:54.096Z,49.40
2018-06-30T14:52:22.980Z,49.20
2018-06-30T14:54:51.953Z,49.50
2018-06-30T14:57:20.868Z,50.00
2018-06-30T14:59:49.789Z,49.60
2018-06-30T15:02:18.751Z,48.10
2018-06-30T15:04:47.656Z,46.90
2018-06-30T15:07:16.665Z,46.50
2018-06-30T15:09:45.633Z,45.60
2018-06-30T15:14:43.079Z,44.80
2018-06-30T15:17:11.932Z,44.20
2018-06-30T15:19:40.893Z,43.70
2018-06-30T15:22:09.824Z,42.80
2018-06-30T15:24:38.873Z,43.30
2018-06-30T15:27:07.744Z,43.60
2018-06-30T15:29:36.760Z,43.40
2018-06-30T15:32:05.911Z,44.50
2018-06-30T15:34:34.857Z,45.60
2018-06-30T15:37:04.078Z,46.70
2018-06-30T15:39:33.000Z,46.70
2018-06-30T15:42:01.880Z,46.30
2018-06-30T15:44:30.885Z,46.00
2018-06-30T15:46:59.817Z,45.80
2018-06-30T15:49:28.724Z,46.70
2018-06-30T15:51:57.646Z,47.30
2018-06-30T15:54:26.644Z,47.10
2018-06-30T15:56:55.649Z,45.90
2018-06-30T15:59:24.596Z,45.10
2018-06-30T16:01:53.651Z,45.90
2018-06-30T16:04:22.557Z,46.60
2018-06-30T16:06:51.569Z,47.40
2018-06-30T16:09:20.447Z,48.10
2018-06-30T16:11:49.436Z,48.40
2018-06-30T16:14:18.276Z,48.80
2018-06-30T16:19:15.742Z,50.80
2018-06-30T16:24:13.097Z,52.40
2018-06-30T16:26:42.152Z,53.10
2018-06-30T16:29:11.036Z,53.90
2018-06-30T16:31:40.080Z,54.20
2018-06-30T16:34:08.992Z,54.60
2018-06-30T16:36:38.152Z,54.20
2018-06-30T16:39:08.701Z,54.30
2018-06-30T16:41:37.667Z,54.20
2018-06-30T16:44:07.104Z,54.30
2018-06-30T16:46:36.593Z,54.30
2018-06-30T16:49:06.058Z,54.40
2018-06-30T16:51:35.104Z,54.70
2018-06-30T16:54:04.089Z,55.00
2018-06-30T16:56:32.990Z,55.10
2018-06-30T16:59:02.001Z,55.40
2018-06-30T17:01:30.856Z,55.30
2018-06-30T17:04:00.012Z,55.70
2018-06-30T17:06:29.029Z,55.80
2018-06-30T17:08:58.059Z,56.10
2018-06-30T17:11:27.041Z,56.60
2018-06-30T17:13:56.904Z,56.90
2018-06-30T17:16:26.420Z,56.20
2018-06-30T17:18:55.504Z,57.00
2018-06-30T17:21:24.481Z,57.10
2018-06-30T17:23:53.458Z,57.60
2018-06-30T17:26:22.480Z,58.10
2018-06-30T17:31:19.955Z,58.40
2018-06-30T17:33:48.890Z,58.60
2018-06-30T17:36:17.877Z,58.80
2018-06-30T17:38:46.898Z,58.90
2018-06-30T17:41:16.000Z,59.40
2018-06-30T17:43:44.934Z,59.90
2018-06-30T17:46:14.026Z,60.40
2018-06-30T17:48:42.982Z,60.80
2018-06-30T17:51:11.893Z,60.60
2018-06-30T17:53:40.961Z,60.30
2018-06-30T17:58:38.420Z,60.10
2018-06-30T18:01:07.625Z,59.40
2018-06-30T18:03:36.600Z,60.10
2018-06-30T18:06:05.634Z,60.20
2018-06-30T18:08:34.512Z,60.30
2018-06-30T18:13:31.900Z,60.90
2018-06-30T18:16:00.874Z,60.60
2018-06-30T18:23:26.851Z,60.90
2018-06-30T18:25:55.888Z,62.10
2018-06-30T18:28:24.793Z,62.90
2018-06-30T18:30:53.796Z,63.90
2018-06-30T18:33:22.709Z,64.70
2018-06-30T18:35:51.596Z,67.10
2018-06-30T18:38:20.588Z,65.40
2018-06-30T18:40:49.497Z,61.80
2018-06-30T18:43:18.505Z,60.20
2018-06-30T18:45:47.349Z,58.80
2018-06-30T18:50:44.832Z,56.60
2018-06-30T18:53:13.801Z,55.80
2018-06-30T18:55:42.707Z,53.00
2018-06-30T18:58:11.698Z,51.60
2018-06-30T19:00:40.769Z,51.00
2018-06-30T19:03:09.628Z,50.50
2018-06-30T19:05:39.079Z,50.10
2018-06-30T19:08:08.081Z,50.30
2018-06-30T19:13:05.760Z,50.00
2018-06-30T19:15:34.764Z,50.00
2018-06-30T19:18:04.247Z,49.10
2018-06-30T19:20:33.273Z,48.70
2018-06-30T19:23:02.198Z,47.30
2018-06-30T19:25:31.089Z,47.30
2018-06-30T19:28:00.540Z,46.50
2018-06-30T19:30:29.514Z,47.60
2018-06-30T19:32:59.172Z,46.90
2018-06-30T19:35:28.056Z,48.50
2018-06-30T19:37:57.039Z,47.20
2018-06-30T19:40:26.001Z,45.70
2018-06-30T19:42:54.949Z,45.50
2018-06-30T19:45:23.852Z,46.30
2018-06-30T19:47:52.728Z,45.60
2018-06-30T19:50:21.632Z,46.10
2018-06-30T19:52:50.513Z,46.20
2018-06-30T19:55:20.576Z,46.30
2018-06-30T19:57:50.193Z,46.30
2018-06-30T20:00:19.136Z,46.20
2018-06-30T20:02:47.998Z,46.10
2018-06-30T20:05:17.019Z,46.00
2018-06-30T20:07:51.023Z,45.10
2018-06-30T20:10:19.976Z,45.20
2018-06-30T20:12:48.840Z,45.10
2018-06-30T20:15:17.812Z,44.40
2018-06-30T20:17:46.748Z,44.30
2018-06-30T20:22:44.426Z,45.40
2018-06-30T20:27:42.079Z,45.20
2018-06-30T20:30:11.008Z,43.90
2018-06-30T20:32:40.091Z,44.60
2018-06-30T20:37:37.532Z,44.20
2018-06-30T20:40:06.518Z,44.20
2018-06-30T20:42:35.395Z,44.10
2018-06-30T20:45:05.005Z,44.00
2018-06-30T20:50:02.416Z,44.50
2018-06-30T20:52:31.378Z,44.90
2018-06-30T20:55:00.292Z,44.50
2018-06-30T20:57:29.168Z,44.50
2018-06-30T20:59:58.068Z,44.40
2018-06-30T21:02:27.053Z,44.90
2018-06-30T21:04:55.834Z,45.40
2018-06-30T21:07:24.768Z,45.70
2018-06-30T21:12:22.185Z,43.00
2018-06-30T21:14:51.080Z,43.10
2018-06-30T21:17:20.085Z,42.70
2018-06-30T21:19:49.088Z,42.10
2018-06-30T21:22:17.940Z,42.20
2018-06-30T21:24:46.956Z,43.00
2018-06-30T21:27:15.870Z,42.40
2018-06-30T21:29:44.812Z,42.50
2018-06-30T21:32:13.710Z,42.60
2018-06-30T21:34:42.601Z,42.90
2018-06-30T21:37:11.596Z,42.90
2018-06-30T21:39:40.836Z,43.00
2018-06-30T21:42:09.721Z,43.20
2018-06-30T21:44:39.310Z,43.20
2018-06-30T21:47:08.252Z,43.70
2018-06-30T21:52:05.800Z,43.90
2018-06-30T21:54:34.676Z,43.00
2018-06-30T21:57:03.645Z,43.90
2018-06-30T21:59:32.545Z,43.90
2018-06-30T22:02:01.410Z,44.40
2018-06-30T22:04:30.364Z,45.30
2018-06-30T22:06:59.308Z,45.30
2018-06-30T22:09:28.249Z,45.90
2018-06-30T22:11:57.177Z,45.90
2018-06-30T22:14:26.116Z,46.60
2018-06-30T22:16:54.988Z,47.00
2018-06-30T22:19:24.057Z,47.20
2018-06-30T22:21:52.922Z,48.00
2018-06-30T22:26:50.302Z,47.20
2018-06-30T22:29:19.185Z,47.00
2018-06-30T22:34:16.529Z,47.30
2018-06-30T22:36:45.395Z,47.50
2018-06-30T22:39:14.616Z,49.10
2018-06-30T22:41:43.482Z,47.50
2018-06-30T22:44:12.355Z,50.70
2018-06-30T22:46:41.259Z,52.90
2018-06-30T22:49:10.132Z,53.20
2018-06-30T22:51:39.064Z,54.10
2018-06-30T22:54:07.968Z,49.60
2018-06-30T22:56:36.856Z,47.80
2018-06-30T22:59:05.760Z,50.50
2018-06-30T23:01:34.781Z,51.30
2018-06-30T23:04:03.719Z,50.30
2018-06-30T23:06:32.660Z,50.30
2018-06-30T23:09:01.880Z,50.40
2018-06-30T23:11:30.992Z,50.70
2018-06-30T23:16:28.441Z,51.40
2018-06-30T23:18:57.288Z,50.70
2018-06-30T23:21:26.224Z,50.90
2018-06-30T23:23:55.893Z,49.70
2018-06-30T23:26:24.896Z,49.30
2018-06-30T23:31:22.394Z,49.60
2018-06-30T23:33:51.329Z,48.90
2018-06-30T23:36:20.148Z,48.90
2018-06-30T23:41:18.409Z,51.10
2018-06-30T23:43:47.368Z,50.50
2018-06-30T23:46:16.280Z,50.30
2018-06-30T23:48:45.157Z,50.30
2018-06-30T23:51:14.232Z,49.70
2018-06-30T23:53:43.084Z,50.80
2018-06-30T23:56:11.999Z,50.90
